sensor_id;sensor_type;location;lat;lon;timestamp;pressure;altitude;pressure_sealevel;temperature;humidity
51496;BME280;37572;52.094;4.870;2023-07-02T00:00:50;100738.81;;;20.88;51.92
51496;BME280;37572;52.094;4.870;2023-07-02T00:03:17;100736.56;;;20.85;51.80
51496;BME280;37572;52.094;4.870;2023-07-02T00:05:43;100737.22;;;20.81;51.37
51496;BME280;37572;52.094;4.870;2023-07-02T00:08:08;100734.16;;;20.77;51.69
51496;BME280;37572;52.094;4.870;2023-07-02T00:10:34;100736.03;;;20.77;51.63
51496;BME280;37572;52.094;4.870;2023-07-02T00:12:59;100733.78;;;20.74;51.57
51496;BME280;37572;52.094;4.870;2023-07-02T00:15:24;100738.56;;;20.72;51.31
51496;BME280;37572;52.094;4.870;2023-07-02T00:17:50;100738.63;;;20.65;51.30
51496;BME280;37572;52.094;4.870;2023-07-02T00:20:15;100733.25;;;20.58;51.46
51496;BME280;37572;52.094;4.870;2023-07-02T00:22:42;100741.44;;;20.51;51.18
51496;BME280;37572;52.094;4.870;2023-07-02T00:25:12;100749.63;;;20.45;50.93
51496;BME280;37572;52.094;4.870;2023-07-02T00:27:37;100738.28;;;20.36;51.10
51496;BME280;37572;52.094;4.870;2023-07-02T00:30:03;100745.03;;;20.27;50.79
51496;BME280;37572;52.094;4.870;2023-07-02T00:32:29;100739.69;;;20.20;50.83
51496;BME280;37572;52.094;4.870;2023-07-02T00:34:54;100742.69;;;20.12;51.01
51496;BME280;37572;52.094;4.870;2023-07-02T00:37:19;100741.88;;;20.05;50.99
51496;BME280;37572;52.094;4.870;2023-07-02T00:39:45;100744.84;;;19.96;51.18
51496;BME280;37572;52.094;4.870;2023-07-02T00:42:12;100753.00;;;19.90;50.93
51496;BME280;37572;52.094;4.870;2023-07-02T00:44:37;100746.84;;;19.83;50.36
51496;BME280;37572;52.094;4.870;2023-07-02T00:47:09;100754.78;;;19.77;50.40
51496;BME280;37572;52.094;4.870;2023-07-02T00:49:35;100754.34;;;19.74;50.67
51496;BME280;37572;52.094;4.870;2023-07-02T00:52:00;100758.09;;;19.73;50.60
51496;BME280;37572;52.094;4.870;2023-07-02T00:54:28;100753.75;;;19.72;50.32
51496;BME280;37572;52.094;4.870;2023-07-02T00:56:54;100761.44;;;19.68;50.39
51496;BME280;37572;52.094;4.870;2023-07-02T00:59:19;100752.72;;;19.66;49.90
51496;BME280;37572;52.094;4.870;2023-07-02T01:01:45;100757.31;;;19.66;50.04
51496;BME280;37572;52.094;4.870;2023-07-02T01:04:17;100760.00;;;19.66;49.90
51496;BME280;37572;52.094;4.870;2023-07-02T01:06:42;100752.72;;;19.66;49.93
51496;BME280;37572;52.094;4.870;2023-07-02T01:09:09;100762.72;;;19.66;49.74
51496;BME280;37572;52.094;4.870;2023-07-02T01:11:38;100764.81;;;19.64;49.81
51496;BME280;37572;52.094;4.870;2023-07-02T01:14:07;100768.56;;;19.63;49.72
51496;BME280;37572;52.094;4.870;2023-07-02T01:16:33;100766.88;;;19.62;49.77
51496;BME280;37572;52.094;4.870;2023-07-02T01:19:03;100757.34;;;19.59;49.90
51496;BME280;37572;52.094;4.870;2023-07-02T01:21:30;100761.69;;;19.60;49.94
51496;BME280;37572;52.094;4.870;2023-07-02T01:23:57;100758.19;;;19.59;49.69
51496;BME280;37572;52.094;4.870;2023-07-02T01:26:28;100759.44;;;19.57;49.67
51496;BME280;37572;52.094;4.870;2023-07-02T01:28:54;100768.59;;;19.56;49.86
51496;BME280;37572;52.094;4.870;2023-07-02T01:31:19;100771.72;;;19.53;49.61
51496;BME280;37572;52.094;4.870;2023-07-02T01:33:44;100760.91;;;19.53;49.71
51496;BME280;37572;52.094;4.870;2023-07-02T01:36:09;100761.97;;;19.52;49.92
51496;BME280;37572;52.094;4.870;2023-07-02T01:38:35;100763.84;;;19.51;49.68
51496;BME280;37572;52.094;4.870;2023-07-02T01:41:00;100769.84;;;19.53;49.96
51496;BME280;37572;52.094;4.870;2023-07-02T01:43:25;100766.91;;;19.55;50.21
51496;BME280;37572;52.094;4.870;2023-07-02T01:45:51;100764.84;;;19.57;50.23
51496;BME280;37572;52.094;4.870;2023-07-02T01:48:16;100760.88;;;19.59;50.34
51496;BME280;37572;52.094;4.870;2023-07-02T01:50:42;100764.19;;;19.62;50.44
51496;BME280;37572;52.094;4.870;2023-07-02T01:53:07;100762.34;;;19.62;50.72
51496;BME280;37572;52.094;4.870;2023-07-02T01:55:32;100761.47;;;19.62;50.75
51496;BME280;37572;52.094;4.870;2023-07-02T01:57:57;100759.25;;;19.58;50.72
51496;BME280;37572;52.094;4.870;2023-07-02T02:00:23;100762.38;;;19.55;50.78
51496;BME280;37572;52.094;4.870;2023-07-02T02:02:49;100762.19;;;19.50;50.46
51496;BME280;37572;52.094;4.870;2023-07-02T02:05:15;100764.47;;;19.47;50.82
51496;BME280;37572;52.094;4.870;2023-07-02T02:07:41;100758.69;;;19.43;50.81
51496;BME280;37572;52.094;4.870;2023-07-02T02:10:06;100760.16;;;19.39;50.50
51496;BME280;37572;52.094;4.870;2023-07-02T02:12:32;100772.84;;;19.38;50.63
51496;BME280;37572;52.094;4.870;2023-07-02T02:14:58;100771.19;;;19.37;50.66
51496;BME280;37572;52.094;4.870;2023-07-02T02:17:23;100785.94;;;19.35;50.53
51496;BME280;37572;52.094;4.870;2023-07-02T02:19:51;100782.63;;;19.33;50.90
51496;BME280;37572;52.094;4.870;2023-07-02T02:22:16;100775.59;;;19.32;50.85
51496;BME280;37572;52.094;4.870;2023-07-02T02:24:42;100779.31;;;19.31;50.72
51496;BME280;37572;52.094;4.870;2023-07-02T02:27:07;100787.41;;;19.31;50.68
51496;BME280;37572;52.094;4.870;2023-07-02T02:29:33;100789.28;;;19.30;50.55
51496;BME280;37572;52.094;4.870;2023-07-02T02:31:59;100783.25;;;19.28;50.63
51496;BME280;37572;52.094;4.870;2023-07-02T02:34:24;100786.16;;;19.27;50.63
51496;BME280;37572;52.094;4.870;2023-07-02T02:36:49;100790.75;;;19.26;50.46
51496;BME280;37572;52.094;4.870;2023-07-02T02:39:15;100794.72;;;19.23;50.59
51496;BME280;37572;52.094;4.870;2023-07-02T02:41:41;100794.94;;;19.22;50.57
51496;BME280;37572;52.094;4.870;2023-07-02T02:44:06;100794.09;;;19.21;50.62
51496;BME280;37572;52.094;4.870;2023-07-02T02:46:31;100797.84;;;19.20;50.48
51496;BME280;37572;52.094;4.870;2023-07-02T02:48:57;100805.94;;;19.20;50.50
51496;BME280;37572;52.094;4.870;2023-07-02T02:51:22;100809.47;;;19.21;50.33
51496;BME280;37572;52.094;4.870;2023-07-02T02:53:48;100811.34;;;19.20;50.19
51496;BME280;37572;52.094;4.870;2023-07-02T02:56:13;100810.28;;;19.21;50.16
51496;BME280;37572;52.094;4.870;2023-07-02T02:58:39;100809.84;;;19.25;50.01
51496;BME280;37572;52.094;4.870;2023-07-02T03:01:05;100811.31;;;19.27;49.85
51496;BME280;37572;52.094;4.870;2023-07-02T03:03:36;100809.81;;;19.31;49.75
51496;BME280;37572;52.094;4.870;2023-07-02T03:06:04;100812.91;;;19.35;49.79
51496;BME280;37572;52.094;4.870;2023-07-02T03:08:29;100818.31;;;19.35;49.66
51496;BME280;37572;52.094;4.870;2023-07-02T03:10:55;100811.06;;;19.35;49.73
51496;BME280;37572;52.094;4.870;2023-07-02T03:13:20;100814.81;;;19.34;49.83
51496;BME280;37572;52.094;4.870;2023-07-02T03:15:45;100810.22;;;19.35;49.74
51496;BME280;37572;52.094;4.870;2023-07-02T03:18:10;100804.63;;;19.36;49.47
51496;BME280;37572;52.094;4.870;2023-07-02T03:20:36;100804.81;;;19.35;49.51
51496;BME280;37572;52.094;4.870;2023-07-02T03:23:01;100806.50;;;19.36;49.30
51496;BME280;37572;52.094;4.870;2023-07-02T03:25:26;100803.59;;;19.37;49.46
51496;BME280;37572;52.094;4.870;2023-07-02T03:27:51;100800.06;;;19.37;49.29
51496;BME280;37572;52.094;4.870;2023-07-02T03:30:17;100808.97;;;19.37;49.50
51496;BME280;37572;52.094;4.870;2023-07-02T03:32:42;100808.97;;;19.37;49.31
51496;BME280;37572;52.094;4.870;2023-07-02T03:35:07;100810.66;;;19.38;49.54
51496;BME280;37572;52.094;4.870;2023-07-02T03:37:33;100802.56;;;19.38;49.40
51496;BME280;37572;52.094;4.870;2023-07-02T03:39:58;100806.50;;;19.36;49.65
51496;BME280;37572;52.094;4.870;2023-07-02T03:42:24;100806.50;;;19.36;49.52
51496;BME280;37572;52.094;4.870;2023-07-02T03:44:49;100809.41;;;19.34;49.46
51496;BME280;37572;52.094;4.870;2023-07-02T03:47:14;100814.00;;;19.34;49.46
51496;BME280;37572;52.094;4.870;2023-07-02T03:49:41;100823.31;;;19.31;49.29
51496;BME280;37572;52.094;4.870;2023-07-02T03:52:06;100817.31;;;19.29;49.56
51496;BME280;37572;52.094;4.870;2023-07-02T03:54:32;100824.59;;;19.29;49.59
51496;BME280;37572;52.094;4.870;2023-07-02T03:56:57;100828.31;;;19.28;49.62
51496;BME280;37572;52.094;4.870;2023-07-02T03:59:22;100830.00;;;19.29;49.73
51496;BME280;37572;52.094;4.870;2023-07-02T04:01:48;100833.72;;;19.28;49.42
51496;BME280;37572;52.094;4.870;2023-07-02T04:04:13;100836.22;;;19.29;49.75
51496;BME280;37572;52.094;4.870;2023-07-02T04:06:38;100836.81;;;19.31;49.47
51496;BME280;37572;52.094;4.870;2023-07-02T04:09:04;100842.00;;;19.33;49.67
51496;BME280;37572;52.094;4.870;2023-07-02T04:11:29;100835.59;;;19.34;49.53
51496;BME280;37572;52.094;4.870;2023-07-02T04:13:54;100837.44;;;19.33;49.87
51496;BME280;37572;52.094;4.870;2023-07-02T04:16:20;100842.63;;;19.35;49.97
51496;BME280;37572;52.094;4.870;2023-07-02T04:18:45;100845.97;;;19.37;49.60
51496;BME280;37572;52.094;4.870;2023-07-02T04:21:10;100849.25;;;19.39;49.86
51496;BME280;37572;52.094;4.870;2023-07-02T04:23:36;100851.53;;;19.42;49.97
51496;BME280;37572;52.094;4.870;2023-07-02T04:26:01;100852.16;;;19.44;49.83
51496;BME280;37572;52.094;4.870;2023-07-02T04:28:26;100843.03;;;19.45;49.79
51496;BME280;37572;52.094;4.870;2023-07-02T04:30:52;100847.34;;;19.46;49.61
51496;BME280;37572;52.094;4.870;2023-07-02T04:33:18;100857.94;;;19.48;49.71
51496;BME280;37572;52.094;4.870;2023-07-02T04:35:43;100858.34;;;19.51;49.52
51496;BME280;37572;52.094;4.870;2023-07-02T04:38:08;100863.94;;;19.56;49.52
51496;BME280;37572;52.094;4.870;2023-07-02T04:40:34;100867.66;;;19.62;49.58
51496;BME280;37572;52.094;4.870;2023-07-02T04:42:59;100862.44;;;19.67;49.63
51496;BME280;37572;52.094;4.870;2023-07-02T04:45:26;100864.50;;;19.72;49.49
51496;BME280;37572;52.094;4.870;2023-07-02T04:47:51;100865.75;;;19.76;49.33
51496;BME280;37572;52.094;4.870;2023-07-02T04:50:18;100874.03;;;19.81;49.50
51496;BME280;37572;52.094;4.870;2023-07-02T04:52:43;100869.03;;;19.85;49.55
51496;BME280;37572;52.094;4.870;2023-07-02T04:55:09;100876.50;;;19.89;49.43
51496;BME280;37572;52.094;4.870;2023-07-02T04:57:34;100869.84;;;19.92;49.33
51496;BME280;37572;52.094;4.870;2023-07-02T05:00:00;100875.63;;;19.95;49.33
51496;BME280;37572;52.094;4.870;2023-07-02T05:02:25;100876.03;;;19.99;49.33
51496;BME280;37572;52.094;4.870;2023-07-02T05:04:50;100867.47;;;20.02;49.34
51496;BME280;37572;52.094;4.870;2023-07-02T05:07:16;100861.44;;;20.07;49.31
51496;BME280;37572;52.094;4.870;2023-07-02T05:09:42;100871.34;;;20.13;49.32
51496;BME280;37572;52.094;4.870;2023-07-02T05:12:07;100869.66;;;20.19;49.25
51496;BME280;37572;52.094;4.870;2023-07-02T05:14:33;100879.38;;;20.26;49.20
51496;BME280;37572;52.094;4.870;2023-07-02T05:16:58;100879.09;;;20.34;49.12
51496;BME280;37572;52.094;4.870;2023-07-02T05:19:24;100878.03;;;20.42;49.18
51496;BME280;37572;52.094;4.870;2023-07-02T05:21:49;100887.72;;;20.50;48.86
51496;BME280;37572;52.094;4.870;2023-07-02T05:24:14;100886.63;;;20.58;49.15
51496;BME280;37572;52.094;4.870;2023-07-02T05:26:39;100891.78;;;20.66;49.03
51496;BME280;37572;52.094;4.870;2023-07-02T05:29:05;100889.84;;;20.73;48.96
51496;BME280;37572;52.094;4.870;2023-07-02T05:31:30;100893.34;;;20.80;48.54
51496;BME280;37572;52.094;4.870;2023-07-02T05:33:56;100896.59;;;20.89;48.45
51496;BME280;37572;52.094;4.870;2023-07-02T05:36:21;100901.94;;;20.96;48.51
51496;BME280;37572;52.094;4.870;2023-07-02T05:38:46;100910.00;;;21.02;48.09
51496;BME280;37572;52.094;4.870;2023-07-02T05:41:20;100908.25;;;21.08;48.35
51496;BME280;37572;52.094;4.870;2023-07-02T05:43:46;100910.31;;;21.13;48.26
51496;BME280;37572;52.094;4.870;2023-07-02T05:46:11;100905.91;;;21.18;48.12
51496;BME280;37572;52.094;4.870;2023-07-02T05:48:39;100912.06;;;21.25;48.04
51496;BME280;37572;52.094;4.870;2023-07-02T05:51:05;100919.03;;;21.33;48.34
51496;BME280;37572;52.094;4.870;2023-07-02T05:53:30;100918.75;;;21.41;48.50
51496;BME280;37572;52.094;4.870;2023-07-02T05:55:55;100923.66;;;21.51;48.48
51496;BME280;37572;52.094;4.870;2023-07-02T05:58:21;100920.44;;;21.61;48.46
51496;BME280;37572;52.094;4.870;2023-07-02T06:00:46;100922.97;;;21.74;48.17
51496;BME280;37572;52.094;4.870;2023-07-02T06:03:18;100920.56;;;21.85;47.44
51496;BME280;37572;52.094;4.870;2023-07-02T06:05:48;100931.31;;;21.91;47.31
51496;BME280;37572;52.094;4.870;2023-07-02T06:08:15;100932.66;;;22.01;46.94
51496;BME280;37572;52.094;4.870;2023-07-02T06:10:40;100939.41;;;22.10;46.85
51496;BME280;37572;52.094;4.870;2023-07-02T06:13:06;100943.22;;;22.21;47.08
51496;BME280;37572;52.094;4.870;2023-07-02T06:15:31;100935.63;;;22.29;46.46
51496;BME280;37572;52.094;4.870;2023-07-02T06:17:56;100943.88;;;22.34;46.40
51496;BME280;37572;52.094;4.870;2023-07-02T06:20:22;100932.94;;;22.41;46.22
51496;BME280;37572;52.094;4.870;2023-07-02T06:22:47;100938.63;;;22.51;45.79
51496;BME280;37572;52.094;4.870;2023-07-02T06:25:13;100940.88;;;22.66;45.95
51496;BME280;37572;52.094;4.870;2023-07-02T06:27:38;100943.88;;;22.77;45.50
51496;BME280;37572;52.094;4.870;2023-07-02T06:30:04;100944.47;;;22.79;44.66
51496;BME280;37572;52.094;4.870;2023-07-02T06:32:29;100941.41;;;22.75;44.04
51496;BME280;37572;52.094;4.870;2023-07-02T06:34:55;100945.97;;;22.75;43.47
51496;BME280;37572;52.094;4.870;2023-07-02T06:37:20;100941.63;;;22.73;44.00
51496;BME280;37572;52.094;4.870;2023-07-02T06:39:45;100952.72;;;22.72;43.24
51496;BME280;37572;52.094;4.870;2023-07-02T06:42:10;100944.34;;;22.73;43.31
51496;BME280;37572;52.094;4.870;2023-07-02T06:44:36;100952.97;;;22.82;42.90
51496;BME280;37572;52.094;4.870;2023-07-02T06:47:01;100955.91;;;22.92;42.86
51496;BME280;37572;52.094;4.870;2023-07-02T06:49:26;100955.50;;;23.07;43.06
51496;BME280;37572;52.094;4.870;2023-07-02T06:51:52;100963.50;;;23.26;42.85
51496;BME280;37572;52.094;4.870;2023-07-02T06:54:17;100967.53;;;23.47;42.82
51496;BME280;37572;52.094;4.870;2023-07-02T06:56:42;100962.50;;;23.68;42.83
51496;BME280;37572;52.094;4.870;2023-07-02T06:59:07;100974.09;;;23.87;41.49
51496;BME280;37572;52.094;4.870;2023-07-02T07:01:33;100977.94;;;24.02;41.46
51496;BME280;37572;52.094;4.870;2023-07-02T07:03:58;100985.81;;;24.16;41.19
51496;BME280;37572;52.094;4.870;2023-07-02T07:06:25;100987.19;;;24.30;40.95
51496;BME280;37572;52.094;4.870;2023-07-02T07:08:50;100992.88;;;24.46;40.61
51496;BME280;37572;52.094;4.870;2023-07-02T07:11:15;100984.81;;;24.51;40.59
51496;BME280;37572;52.094;4.870;2023-07-02T07:13:41;100994.03;;;24.62;40.16
51496;BME280;37572;52.094;4.870;2023-07-02T07:16:08;100997.16;;;24.70;39.54
51496;BME280;37572;52.094;4.870;2023-07-02T07:18:34;100995.44;;;24.81;39.63
51496;BME280;37572;52.094;4.870;2023-07-02T07:20:59;101001.88;;;24.92;38.86
51496;BME280;37572;52.094;4.870;2023-07-02T07:23:25;101000.03;;;25.15;39.20
51496;BME280;37572;52.094;4.870;2023-07-02T07:25:50;101006.50;;;25.25;38.92
51496;BME280;37572;52.094;4.870;2023-07-02T07:28:16;101017.50;;;25.14;38.84
51496;BME280;37572;52.094;4.870;2023-07-02T07:30:42;101017.31;;;25.03;38.77
51496;BME280;37572;52.094;4.870;2023-07-02T07:33:08;101018.53;;;25.12;38.72
51496;BME280;37572;52.094;4.870;2023-07-02T07:35:33;101021.63;;;25.33;38.64
51496;BME280;37572;52.094;4.870;2023-07-02T07:37:58;101026.88;;;25.57;38.45
51496;BME280;37572;52.094;4.870;2023-07-02T07:40:24;101033.16;;;25.79;37.58
51496;BME280;37572;52.094;4.870;2023-07-02T07:42:49;101037.13;;;25.89;37.69
51496;BME280;37572;52.094;4.870;2023-07-02T07:45:14;101024.69;;;25.98;37.35
51496;BME280;37572;52.094;4.870;2023-07-02T07:47:40;101027.50;;;26.03;37.34
51496;BME280;37572;52.094;4.870;2023-07-02T07:50:07;101035.09;;;26.01;36.76
51496;BME280;37572;52.094;4.870;2023-07-02T07:52:37;101030.50;;;25.84;36.67
51496;BME280;37572;52.094;4.870;2023-07-02T07:55:02;101028.41;;;25.70;36.50
51496;BME280;37572;52.094;4.870;2023-07-02T07:57:28;101035.22;;;25.50;35.75
51496;BME280;37572;52.094;4.870;2023-07-02T07:59:53;101040.72;;;25.33;36.14
51496;BME280;37572;52.094;4.870;2023-07-02T08:02:18;101037.19;;;25.21;36.71
51496;BME280;37572;52.094;4.870;2023-07-02T08:04:43;101039.28;;;25.14;37.23
51496;BME280;37572;52.094;4.870;2023-07-02T08:07:09;101038.03;;;25.04;37.56
51496;BME280;37572;52.094;4.870;2023-07-02T08:09:34;101035.53;;;25.03;37.52
51496;BME280;37572;52.094;4.870;2023-07-02T08:12:00;101039.53;;;24.95;37.92
51496;BME280;37572;52.094;4.870;2023-07-02T08:14:25;101038.75;;;24.83;38.22
51496;BME280;37572;52.094;4.870;2023-07-02T08:16:50;101044.56;;;24.58;37.97
51496;BME280;37572;52.094;4.870;2023-07-02T08:19:16;101043.59;;;24.35;37.90
51496;BME280;37572;52.094;4.870;2023-07-02T08:21:42;101037.19;;;24.29;39.04
51496;BME280;37572;52.094;4.870;2023-07-02T08:24:07;101041.59;;;24.30;38.29
51496;BME280;37572;52.094;4.870;2023-07-02T08:26:32;101043.72;;;24.28;38.50
51496;BME280;37572;52.094;4.870;2023-07-02T08:28:58;101039.50;;;24.20;38.35
51496;BME280;37572;52.094;4.870;2023-07-02T08:31:23;101043.88;;;24.22;38.92
51496;BME280;37572;52.094;4.870;2023-07-02T08:33:48;101044.56;;;24.29;39.07
51496;BME280;37572;52.094;4.870;2023-07-02T08:36:14;101050.94;;;24.23;38.21
51496;BME280;37572;52.094;4.870;2023-07-02T08:38:39;101054.38;;;24.18;38.88
51496;BME280;37572;52.094;4.870;2023-07-02T08:41:07;101050.38;;;24.20;39.17
51496;BME280;37572;52.094;4.870;2023-07-02T08:43:33;101056.25;;;24.29;38.78
51496;BME280;37572;52.094;4.870;2023-07-02T08:45:59;101056.97;;;24.36;38.33
51496;BME280;37572;52.094;4.870;2023-07-02T08:48:26;101051.00;;;24.39;38.56
51496;BME280;37572;52.094;4.870;2023-07-02T08:50:51;101061.31;;;24.37;37.66
51496;BME280;37572;52.094;4.870;2023-07-02T08:53:16;101063.72;;;24.22;37.43
51496;BME280;37572;52.094;4.870;2023-07-02T08:55:42;101063.88;;;24.15;37.60
51496;BME280;37572;52.094;4.870;2023-07-02T08:58:07;101064.94;;;24.14;36.99
51496;BME280;37572;52.094;4.870;2023-07-02T09:00:33;101066.34;;;24.17;36.44
51496;BME280;37572;52.094;4.870;2023-07-02T09:03:14;101062.31;;;24.19;36.73
51496;BME280;37572;52.094;4.870;2023-07-02T09:05:51;101061.81;;;24.23;36.89
51496;BME280;37572;52.094;4.870;2023-07-02T09:08:27;101059.13;;;24.23;37.06
51496;BME280;37572;52.094;4.870;2023-07-02T09:10:53;101055.66;;;24.27;37.52
51496;BME280;37572;52.094;4.870;2023-07-02T09:13:18;101060.16;;;24.33;37.79
51496;BME280;37572;52.094;4.870;2023-07-02T09:15:44;101068.91;;;24.35;37.90
51496;BME280;37572;52.094;4.870;2023-07-02T09:18:22;101065.78;;;24.44;38.59
51496;BME280;37572;52.094;4.870;2023-07-02T09:20:50;101061.03;;;24.51;37.84
51496;BME280;37572;52.094;4.870;2023-07-02T09:23:16;101065.97;;;24.54;37.51
51496;BME280;37572;52.094;4.870;2023-07-02T09:25:41;101069.75;;;24.53;37.72
51496;BME280;37572;52.094;4.870;2023-07-02T09:28:22;101069.66;;;24.60;38.46
51496;BME280;37572;52.094;4.870;2023-07-02T09:30:55;101070.91;;;24.69;37.68
51496;BME280;37572;52.094;4.870;2023-07-02T09:33:23;101064.41;;;24.70;37.63
51496;BME280;37572;52.094;4.870;2023-07-02T09:35:48;101063.81;;;24.68;37.28
51496;BME280;37572;52.094;4.870;2023-07-02T09:38:15;101071.41;;;24.66;36.53
51496;BME280;37572;52.094;4.870;2023-07-02T09:40:49;101072.03;;;24.56;36.50
51496;BME280;37572;52.094;4.870;2023-07-02T09:43:16;101067.03;;;24.53;36.26
51496;BME280;37572;52.094;4.870;2023-07-02T09:45:50;101067.69;;;24.55;36.44
51496;BME280;37572;52.094;4.870;2023-07-02T09:48:16;101068.34;;;24.62;36.15
51496;BME280;37572;52.094;4.870;2023-07-02T09:50:47;101073.31;;;24.65;36.38
51496;BME280;37572;52.094;4.870;2023-07-02T09:53:12;101076.69;;;24.72;36.18
51496;BME280;37572;52.094;4.870;2023-07-02T09:55:42;101071.69;;;24.81;36.72
51496;BME280;37572;52.094;4.870;2023-07-02T09:58:08;101081.09;;;24.90;35.99
51496;BME280;37572;52.094;4.870;2023-07-02T10:00:34;101077.66;;;24.95;35.70
51496;BME280;37572;52.094;4.870;2023-07-02T10:03:00;101079.78;;;24.93;35.86
51496;BME280;37572;52.094;4.870;2023-07-02T10:05:30;101076.47;;;24.91;35.87
51496;BME280;37572;52.094;4.870;2023-07-02T10:07:56;101090.00;;;24.86;35.88
51496;BME280;37572;52.094;4.870;2023-07-02T10:10:27;101088.78;;;24.77;35.42
51496;BME280;37572;52.094;4.870;2023-07-02T10:12:52;101098.06;;;24.64;35.34
51496;BME280;37572;52.094;4.870;2023-07-02T10:15:38;101089.56;;;24.48;36.02
51496;BME280;37572;52.094;4.870;2023-07-02T10:18:05;101098.69;;;24.42;36.26
51496;BME280;37572;52.094;4.870;2023-07-02T10:20:40;101098.00;;;24.35;35.58
51496;BME280;37572;52.094;4.870;2023-07-02T10:23:08;101095.53;;;24.33;36.21
51496;BME280;37572;52.094;4.870;2023-07-02T10:25:36;101097.16;;;24.34;36.13
51496;BME280;37572;52.094;4.870;2023-07-02T10:28:14;101097.63;;;24.43;36.54
51496;BME280;37572;52.094;4.870;2023-07-02T10:30:40;101099.13;;;24.51;36.00
51496;BME280;37572;52.094;4.870;2023-07-02T10:35:34;101107.19;;;24.46;36.78
51496;BME280;37572;52.094;4.870;2023-07-02T10:38:00;101111.47;;;24.42;36.34
51496;BME280;37572;52.094;4.870;2023-07-02T10:40:25;101102.38;;;24.36;36.25
51496;BME280;37572;52.094;4.870;2023-07-02T10:42:52;101115.25;;;24.41;36.76
51496;BME280;37572;52.094;4.870;2023-07-02T10:45:18;101106.47;;;24.50;36.91
51496;BME280;37572;52.094;4.870;2023-07-02T10:47:44;101110.81;;;24.51;35.61
51496;BME280;37572;52.094;4.870;2023-07-02T10:50:20;101109.91;;;24.46;35.15
51496;BME280;37572;52.094;4.870;2023-07-02T10:52:46;101111.47;;;24.42;35.03
51496;BME280;37572;52.094;4.870;2023-07-02T10:55:19;101108.03;;;24.34;33.97
51496;BME280;37572;52.094;4.870;2023-07-02T10:57:45;101108.91;;;24.35;34.38
51496;BME280;37572;52.094;4.870;2023-07-02T11:00:11;101098.94;;;24.41;35.43
51496;BME280;37572;52.094;4.870;2023-07-02T11:02:37;101106.38;;;24.57;35.32
51496;BME280;37572;52.094;4.870;2023-07-02T11:05:04;101115.53;;;24.68;35.22
51496;BME280;37572;52.094;4.870;2023-07-02T11:07:31;101114.25;;;24.70;33.88
51496;BME280;37572;52.094;4.870;2023-07-02T11:09:57;101119.53;;;24.77;33.43
51496;BME280;37572;52.094;4.870;2023-07-02T11:12:29;101129.22;;;24.85;33.26
51496;BME280;37572;52.094;4.870;2023-07-02T11:14:54;101115.00;;;24.83;33.03
51496;BME280;37572;52.094;4.870;2023-07-02T11:17:25;101120.22;;;24.84;34.01
51496;BME280;37572;52.094;4.870;2023-07-02T11:19:51;101115.69;;;24.90;33.65
51496;BME280;37572;52.094;4.870;2023-07-02T11:22:16;101111.88;;;24.91;32.61
51496;BME280;37572;52.094;4.870;2023-07-02T11:24:41;101113.06;;;24.95;33.45
51496;BME280;37572;52.094;4.870;2023-07-02T11:27:07;101116.13;;;24.99;33.68
51496;BME280;37572;52.094;4.870;2023-07-02T11:29:34;101126.19;;;24.98;33.03
51496;BME280;37572;52.094;4.870;2023-07-02T11:32:06;101124.34;;;24.87;33.41
51496;BME280;37572;52.094;4.870;2023-07-02T11:34:32;101121.06;;;24.73;32.64
51496;BME280;37572;52.094;4.870;2023-07-02T11:36:57;101126.09;;;24.64;33.26
51496;BME280;37572;52.094;4.870;2023-07-02T11:39:23;101130.38;;;24.60;33.42
51496;BME280;37572;52.094;4.870;2023-07-02T11:41:49;101122.69;;;24.57;33.31
51496;BME280;37572;52.094;4.870;2023-07-02T11:44:15;101122.56;;;24.52;33.20
51496;BME280;37572;52.094;4.870;2023-07-02T11:46:41;101128.25;;;24.62;33.50
51496;BME280;37572;52.094;4.870;2023-07-02T11:49:06;101118.06;;;24.86;33.74
51496;BME280;37572;52.094;4.870;2023-07-02T11:51:35;101121.59;;;25.16;33.09
51496;BME280;37572;52.094;4.870;2023-07-02T11:54:00;101120.22;;;25.30;32.65
51496;BME280;37572;52.094;4.870;2023-07-02T11:56:25;101112.38;;;25.34;31.88
51496;BME280;37572;52.094;4.870;2023-07-02T11:58:51;101120.97;;;25.42;31.58
51496;BME280;37572;52.094;4.870;2023-07-02T12:01:16;101120.13;;;25.59;31.25
51496;BME280;37572;52.094;4.870;2023-07-02T12:03:41;101132.34;;;25.73;30.57
51496;BME280;37572;52.094;4.870;2023-07-02T12:06:06;101129.72;;;25.78;30.47
51496;BME280;37572;52.094;4.870;2023-07-02T12:08:32;101145.28;;;25.83;30.62
51496;BME280;37572;52.094;4.870;2023-07-02T12:10:57;101132.25;;;26.02;30.84
51496;BME280;37572;52.094;4.870;2023-07-02T12:13:22;101135.38;;;26.33;31.36
51496;BME280;37572;52.094;4.870;2023-07-02T12:15:48;101134.09;;;26.63;31.27
51496;BME280;37572;52.094;4.870;2023-07-02T12:18:15;101141.84;;;26.93;31.04
51496;BME280;37572;52.094;4.870;2023-07-02T12:20:40;101136.34;;;27.20;29.95
51496;BME280;37572;52.094;4.870;2023-07-02T12:23:05;101144.66;;;27.30;29.22
51496;BME280;37572;52.094;4.870;2023-07-02T12:25:31;101143.06;;;27.35;29.95
51496;BME280;37572;52.094;4.870;2023-07-02T12:27:56;101153.66;;;27.31;29.33
51496;BME280;37572;52.094;4.870;2023-07-02T12:30:22;101146.66;;;27.13;29.69
51496;BME280;37572;52.094;4.870;2023-07-02T12:32:47;101148.06;;;26.88;29.12
51496;BME280;37572;52.094;4.870;2023-07-02T12:35:13;101147.13;;;26.55;29.30
51496;BME280;37572;52.094;4.870;2023-07-02T12:37:46;101154.09;;;26.24;29.79
51496;BME280;37572;52.094;4.870;2023-07-02T12:40:12;101152.72;;;26.04;30.52
51496;BME280;37572;52.094;4.870;2023-07-02T12:42:37;101150.19;;;25.98;30.69
51496;BME280;37572;52.094;4.870;2023-07-02T12:45:05;101154.00;;;25.97;31.07
51496;BME280;37572;52.094;4.870;2023-07-02T12:47:30;101156.81;;;26.02;30.75